sensor_id;sensor_type;location;lat;lon;timestamp;pressure;altitude;pressure_sealevel;temperature;humidity
40155;BME280;25875;48.202;16.334;2023-04-24T00:02:20;98001.47;;;15.32;54.11
40155;BME280;25875;48.202;16.334;2023-04-24T00:04:48;97996.28;;;15.30;54.20
40155;BME280;25875;48.202;16.334;2023-04-24T00:07:15;97995.75;;;15.27;54.37
40155;BME280;25875;48.202;16.334;2023-04-24T00:09:42;97986.19;;;15.24;54.14
40155;BME280;25875;48.202;16.334;2023-04-24T00:12:09;97863.84;;;14.55;54.10
40155;BME280;25875;48.202;16.334;2023-04-24T00:14:36;97992.94;;;15.28;54.27
40155;BME280;25875;48.202;16.334;2023-04-24T00:17:03;97983.78;;;15.31;54.15
40155;BME280;25875;48.202;16.334;2023-04-24T00:19:30;97991.78;;;15.31;54.18
40155;BME280;25875;48.202;16.334;2023-04-24T00:21:58;97992.94;;;15.28;54.50
40155;BME280;25875;48.202;16.334;2023-04-24T00:24:25;97936.59;;;14.94;54.53
40155;BME280;25875;48.202;16.334;2023-04-24T00:26:51;97990.13;;;15.30;54.55
40155;BME280;25875;48.202;16.334;2023-04-24T00:29:18;97998.13;;;15.30;54.57
40155;BME280;25875;48.202;16.334;2023-04-24T00:31:45;97988.00;;;15.33;54.46
40155;BME280;25875;48.202;16.334;2023-04-24T00:34:11;97989.81;;;15.33;54.57
40155;BME280;25875;48.202;16.334;2023-04-24T00:36:38;97840.75;;;14.36;54.50
40155;BME280;25875;48.202;16.334;2023-04-24T00:39:07;97983.94;;;15.29;54.78
40155;BME280;25875;48.202;16.334;2023-04-24T00:41:34;97976.91;;;15.28;54.53
40155;BME280;25875;48.202;16.334;2023-04-24T00:44:01;97971.13;;;15.33;54.53
40155;BME280;25875;48.202;16.334;2023-04-24T00:46:28;97979.53;;;15.38;54.49
40155;BME280;25875;48.202;16.334;2023-04-24T00:48:56;97980.22;;;15.40;54.16
40155;BME280;25875;48.202;16.334;2023-04-24T00:51:22;97976.56;;;15.41;54.30
40155;BME280;25875;48.202;16.334;2023-04-24T00:53:49;97980.22;;;15.40;54.20
40155;BME280;25875;48.202;16.334;2023-04-24T00:56:18;97939.44;;;15.20;54.19
40155;BME280;25875;48.202;16.334;2023-04-24T00:58:46;97965.91;;;15.41;53.98
40155;BME280;25875;48.202;16.334;2023-04-24T01:01:14;97980.47;;;15.47;54.18
40155;BME280;25875;48.202;16.334;2023-04-24T01:03:41;97980.19;;;15.50;53.85
40155;BME280;25875;48.202;16.334;2023-04-24T01:06:08;97975.00;;;15.48;54.11
40155;BME280;25875;48.202;16.334;2023-04-24T01:08:35;97927.53;;;15.15;54.32
40155;BME280;25875;48.202;16.334;2023-04-24T01:11:04;97989.19;;;15.49;54.29
40155;BME280;25875;48.202;16.334;2023-04-24T01:13:33;97939.59;;;15.19;53.95
40155;BME280;25875;48.202;16.334;2023-04-24T01:16:00;97980.91;;;15.42;53.96
40155;BME280;25875;48.202;16.334;2023-04-24T01:18:27;97994.38;;;15.50;54.04
40155;BME280;25875;48.202;16.334;2023-04-24T01:20:57;97996.34;;;15.48;54.48
40155;BME280;25875;48.202;16.334;2023-04-24T01:23:26;97997.50;;;15.46;53.93
40155;BME280;25875;48.202;16.334;2023-04-24T01:25:53;98004.66;;;15.45;54.24
40155;BME280;25875;48.202;16.334;2023-04-24T01:28:19;98003.13;;;15.43;54.11
40155;BME280;25875;48.202;16.334;2023-04-24T01:30:47;97822.28;;;14.25;54.34
40155;BME280;25875;48.202;16.334;2023-04-24T01:33:13;98006.22;;;15.38;54.50
40155;BME280;25875;48.202;16.334;2023-04-24T01:35:40;97860.81;;;14.40;54.12
40155;BME280;25875;48.202;16.334;2023-04-24T01:38:07;98002.72;;;15.37;54.10
40155;BME280;25875;48.202;16.334;2023-04-24T01:40:35;97997.38;;;15.37;54.27
40155;BME280;25875;48.202;16.334;2023-04-24T01:43:12;97974.13;;;15.20;54.40
40155;BME280;25875;48.202;16.334;2023-04-24T01:45:39;98003.31;;;15.31;54.33
40155;BME280;25875;48.202;16.334;2023-04-24T01:48:06;98003.59;;;15.28;54.52
40155;BME280;25875;48.202;16.334;2023-04-24T01:50:33;97999.25;;;15.27;54.59
40155;BME280;25875;48.202;16.334;2023-04-24T01:53:00;97995.19;;;15.23;54.91
40155;BME280;25875;48.202;16.334;2023-04-24T01:55:27;97999.69;;;15.23;55.06
40155;BME280;25875;48.202;16.334;2023-04-24T01:57:55;97993.03;;;14.99;55.59
40155;BME280;25875;48.202;16.334;2023-04-24T02:00:23;98018.31;;;14.95;55.86
40155;BME280;25875;48.202;16.334;2023-04-24T02:02:50;98014.56;;;14.79;56.15
40155;BME280;25875;48.202;16.334;2023-04-24T02:05:17;98012.22;;;14.66;56.17
40155;BME280;25875;48.202;16.334;2023-04-24T02:07:44;97947.66;;;14.04;56.18
40155;BME280;25875;48.202;16.334;2023-04-24T02:10:11;97998.97;;;14.45;56.30
40155;BME280;25875;48.202;16.334;2023-04-24T02:12:37;97995.75;;;14.41;56.78
40155;BME280;25875;48.202;16.334;2023-04-24T02:15:05;97993.09;;;14.41;56.77
40155;BME280;25875;48.202;16.334;2023-04-24T02:17:33;97992.94;;;14.43;56.85
40155;BME280;25875;48.202;16.334;2023-04-24T02:20:00;97994.63;;;14.44;56.57
40155;BME280;25875;48.202;16.334;2023-04-24T02:22:29;97989.28;;;14.44;56.20
40155;BME280;25875;48.202;16.334;2023-04-24T02:24:56;97986.06;;;14.40;56.03
40155;BME280;25875;48.202;16.334;2023-04-24T02:27:23;98001.38;;;14.38;56.42
40155;BME280;25875;48.202;16.334;2023-04-24T02:29:50;97993.66;;;14.35;56.75
40155;BME280;25875;48.202;16.334;2023-04-24T02:32:16;98000.38;;;14.30;56.14
40155;BME280;25875;48.202;16.334;2023-04-24T02:34:45;97998.41;;;14.22;56.33
40155;BME280;25875;48.202;16.334;2023-04-24T02:37:11;98007.81;;;14.26;56.23
40155;BME280;25875;48.202;16.334;2023-04-24T02:39:38;98006.28;;;14.24;56.25
40155;BME280;25875;48.202;16.334;2023-04-24T02:42:05;98004.31;;;14.16;56.77
40155;BME280;25875;48.202;16.334;2023-04-24T02:44:33;98000.94;;;14.14;56.85
40155;BME280;25875;48.202;16.334;2023-04-24T02:47:00;97983.28;;;14.13;56.53
40155;BME280;25875;48.202;16.334;2023-04-24T02:49:27;97961.69;;;13.97;56.88
40155;BME280;25875;48.202;16.334;2023-04-24T02:51:55;97986.38;;;14.18;56.54
40155;BME280;25875;48.202;16.334;2023-04-24T02:54:22;97978.94;;;14.22;56.53
40155;BME280;25875;48.202;16.334;2023-04-24T02:56:49;97979.91;;;14.21;56.33
40155;BME280;25875;48.202;16.334;2023-04-24T02:59:16;97952.16;;;14.04;56.43
40155;BME280;25875;48.202;16.334;2023-04-24T03:01:43;97974.16;;;14.16;56.52
40155;BME280;25875;48.202;16.334;2023-04-24T03:04:09;97941.22;;;13.97;56.71
40155;BME280;25875;48.202;16.334;2023-04-24T03:06:36;97983.00;;;14.06;56.67
40155;BME280;25875;48.202;16.334;2023-04-24T03:09:05;97968.13;;;14.04;56.82
40155;BME280;25875;48.202;16.334;2023-04-24T03:11:32;97974.44;;;14.03;56.88
40155;BME280;25875;48.202;16.334;2023-04-24T03:13:59;97977.09;;;14.03;57.32
40155;BME280;25875;48.202;16.334;2023-04-24T03:16:25;97966.59;;;14.01;56.90
40155;BME280;25875;48.202;16.334;2023-04-24T03:18:52;97956.06;;;14.00;56.95
40155;BME280;25875;48.202;16.334;2023-04-24T03:21:19;97951.31;;;13.94;57.00
40155;BME280;25875;48.202;16.334;2023-04-24T03:23:46;97861.09;;;13.22;57.06
40155;BME280;25875;48.202;16.334;2023-04-24T03:26:14;97959.16;;;13.86;57.40
40155;BME280;25875;48.202;16.334;2023-04-24T03:28:40;97965.59;;;13.83;57.79
40155;BME280;25875;48.202;16.334;2023-04-24T03:31:07;97885.91;;;13.32;57.83
40155;BME280;25875;48.202;16.334;2023-04-24T03:33:34;97931.66;;;13.56;57.84
40155;BME280;25875;48.202;16.334;2023-04-24T03:36:01;97961.25;;;13.72;58.29
40155;BME280;25875;48.202;16.334;2023-04-24T03:38:28;97958.00;;;13.69;58.38
40155;BME280;25875;48.202;16.334;2023-04-24T03:40:54;97964.44;;;13.66;58.30
40155;BME280;25875;48.202;16.334;2023-04-24T03:43:23;97963.59;;;13.66;58.85
40155;BME280;25875;48.202;16.334;2023-04-24T03:45:49;97963.47;;;13.67;58.49
40155;BME280;25875;48.202;16.334;2023-04-24T03:48:16;97967.81;;;13.68;58.70
40155;BME280;25875;48.202;16.334;2023-04-24T03:50:44;97973.16;;;13.68;58.69
40155;BME280;25875;48.202;16.334;2023-04-24T03:53:10;97965.28;;;13.67;58.78
40155;BME280;25875;48.202;16.334;2023-04-24T03:55:37;97967.25;;;13.65;58.71
40155;BME280;25875;48.202;16.334;2023-04-24T03:58:04;97969.06;;;13.64;59.08
40155;BME280;25875;48.202;16.334;2023-04-24T04:00:32;97964.16;;;13.60;59.80
40155;BME280;25875;48.202;16.334;2023-04-24T04:02:59;97966.69;;;13.61;59.12
40155;BME280;25875;48.202;16.334;2023-04-24T04:05:26;97969.47;;;13.60;59.24
40155;BME280;25875;48.202;16.334;2023-04-24T04:07:53;97974.81;;;13.60;59.51
40155;BME280;25875;48.202;16.334;2023-04-24T04:10:20;97977.34;;;13.61;59.17
40155;BME280;25875;48.202;16.334;2023-04-24T04:12:47;97948.31;;;13.48;59.28
40155;BME280;25875;48.202;16.334;2023-04-24T04:15:13;97983.94;;;13.67;59.50
40155;BME280;25875;48.202;16.334;2023-04-24T04:17:42;97976.22;;;13.64;59.68
40155;BME280;25875;48.202;16.334;2023-04-24T04:20:09;97977.06;;;13.64;59.61
40155;BME280;25875;48.202;16.334;2023-04-24T04:22:36;97975.25;;;13.65;59.34
40155;BME280;25875;48.202;16.334;2023-04-24T04:25:03;97968.94;;;13.66;59.37
40155;BME280;25875;48.202;16.334;2023-04-24T04:27:30;97974.13;;;13.67;59.74
40155;BME280;25875;48.202;16.334;2023-04-24T04:29:57;97977.75;;;13.66;59.51
40155;BME280;25875;48.202;16.334;2023-04-24T04:32:25;97979.72;;;13.64;59.66
40155;BME280;25875;48.202;16.334;2023-04-24T04:34:53;97978.75;;;13.65;59.92
40155;BME280;25875;48.202;16.334;2023-04-24T04:37:19;97984.06;;;13.65;59.84
40155;BME280;25875;48.202;16.334;2023-04-24T04:39:47;97980.00;;;13.61;59.96
40155;BME280;25875;48.202;16.334;2023-04-24T04:42:14;97993.56;;;13.58;59.85
40155;BME280;25875;48.202;16.334;2023-04-24T04:44:41;97958.53;;;13.43;60.07
40155;BME280;25875;48.202;16.334;2023-04-24T04:47:08;97980.97;;;13.60;59.85
40155;BME280;25875;48.202;16.334;2023-04-24T04:49:36;97986.16;;;13.62;59.81
40155;BME280;25875;48.202;16.334;2023-04-24T04:52:05;97984.34;;;13.62;60.19
40155;BME280;25875;48.202;16.334;2023-04-24T04:54:32;97986.72;;;13.65;59.56
40155;BME280;25875;48.202;16.334;2023-04-24T04:56:59;97952.34;;;13.43;59.69
40155;BME280;25875;48.202;16.334;2023-04-24T04:59:26;97991.06;;;13.66;59.79
40155;BME280;25875;48.202;16.334;2023-04-24T05:01:53;97995.16;;;13.70;59.59
40155;BME280;25875;48.202;16.334;2023-04-24T05:04:19;97967.22;;;13.55;59.62
40155;BME280;25875;48.202;16.334;2023-04-24T05:06:46;98002.44;;;13.78;59.43
40155;BME280;25875;48.202;16.334;2023-04-24T05:09:15;98002.44;;;13.78;59.62
40155;BME280;25875;48.202;16.334;2023-04-24T05:11:42;97926.41;;;13.35;59.45
40155;BME280;25875;48.202;16.334;2023-04-24T05:14:08;98000.06;;;13.85;59.34
40155;BME280;25875;48.202;16.334;2023-04-24T05:16:36;97999.66;;;13.89;59.55
40155;BME280;25875;48.202;16.334;2023-04-24T05:19:03;97995.19;;;13.90;59.24
40155;BME280;25875;48.202;16.334;2023-04-24T05:21:30;97999.94;;;13.96;59.39
40155;BME280;25875;48.202;16.334;2023-04-24T05:23:57;98003.03;;;14.01;59.30
40155;BME280;25875;48.202;16.334;2023-04-24T05:26:25;98002.63;;;14.05;59.40
40155;BME280;25875;48.202;16.334;2023-04-24T05:28:52;97960.69;;;13.78;59.02
40155;BME280;25875;48.202;16.334;2023-04-24T05:31:19;98008.94;;;14.14;58.89
40155;BME280;25875;48.202;16.334;2023-04-24T05:33:45;98015.53;;;14.20;58.62
40155;BME280;25875;48.202;16.334;2023-04-24T05:36:12;98010.06;;;14.21;58.41
40155;BME280;25875;48.202;16.334;2023-04-24T05:38:39;97912.03;;;13.57;58.81
40155;BME280;25875;48.202;16.334;2023-04-24T05:41:06;97859.06;;;13.44;58.62
40155;BME280;25875;48.202;16.334;2023-04-24T05:43:34;98000.09;;;14.33;58.36
40155;BME280;25875;48.202;16.334;2023-04-24T05:46:02;98014.97;;;14.35;58.28
40155;BME280;25875;48.202;16.334;2023-04-24T05:48:28;97997.00;;;14.37;58.12
40155;BME280;25875;48.202;16.334;2023-04-24T05:50:56;97998.56;;;14.40;57.92
40155;BME280;25875;48.202;16.334;2023-04-24T05:53:22;98001.50;;;14.47;57.99
40155;BME280;25875;48.202;16.334;2023-04-24T05:55:49;98004.44;;;14.43;57.84
40155;BME280;25875;48.202;16.334;2023-04-24T05:58:16;98006.69;;;14.48;57.66
40155;BME280;25875;48.202;16.334;2023-04-24T06:00:44;98002.63;;;14.44;57.75
40155;BME280;25875;48.202;16.334;2023-04-24T06:03:12;98006.41;;;14.41;57.68
40155;BME280;25875;48.202;16.334;2023-04-24T06:05:39;98002.91;;;14.41;57.66
40155;BME280;25875;48.202;16.334;2023-04-24T06:08:05;97982.72;;;14.29;57.36
40155;BME280;25875;48.202;16.334;2023-04-24T06:10:32;98006.97;;;14.45;57.36
40155;BME280;25875;48.202;16.334;2023-04-24T06:12:59;98003.88;;;14.50;57.02
40155;BME280;25875;48.202;16.334;2023-04-24T06:15:28;98003.59;;;14.53;57.15
40155;BME280;25875;48.202;16.334;2023-04-24T06:17:57;98001.78;;;14.53;56.91
40155;BME280;25875;48.202;16.334;2023-04-24T06:20:24;97977.53;;;14.37;56.81
40155;BME280;25875;48.202;16.334;2023-04-24T06:22:51;97987.03;;;14.49;56.99
40155;BME280;25875;48.202;16.334;2023-04-24T06:25:18;97922.84;;;14.13;56.84
40155;BME280;25875;48.202;16.334;2023-04-24T06:27:45;98005.88;;;14.67;56.75
40155;BME280;25875;48.202;16.334;2023-04-24T06:30:12;97928.03;;;14.25;56.41
40155;BME280;25875;48.202;16.334;2023-04-24T06:32:39;98007.16;;;14.72;56.25
40155;BME280;25875;48.202;16.334;2023-04-24T06:35:08;98001.66;;;14.74;56.59
40155;BME280;25875;48.202;16.334;2023-04-24T06:37:36;98001.66;;;14.74;56.63
40155;BME280;25875;48.202;16.334;2023-04-24T06:40:04;97921.84;;;14.34;56.15
40155;BME280;25875;48.202;16.334;2023-04-24T06:42:31;97965.75;;;14.68;55.83
40155;BME280;25875;48.202;16.334;2023-04-24T06:44:58;98003.31;;;14.94;56.14
40155;BME280;25875;48.202;16.334;2023-04-24T06:47:26;97998.38;;;14.99;55.56
40155;BME280;25875;48.202;16.334;2023-04-24T06:49:53;97959.41;;;14.79;56.06
40155;BME280;25875;48.202;16.334;2023-04-24T06:52:21;97990.91;;;15.03;55.95
40155;BME280;25875;48.202;16.334;2023-04-24T06:54:48;97955.16;;;14.86;55.82
40155;BME280;25875;48.202;16.334;2023-04-24T06:57:15;97963.88;;;14.88;55.88
40155;BME280;25875;48.202;16.334;2023-04-24T06:59:42;98001.69;;;15.11;55.53
40155;BME280;25875;48.202;16.334;2023-04-24T07:02:09;98004.22;;;15.13;55.38
40155;BME280;25875;48.202;16.334;2023-04-24T07:04:36;98003.53;;;15.11;55.42
40155;BME280;25875;48.202;16.334;2023-04-24T07:07:03;98020.97;;;15.05;55.54
40155;BME280;25875;48.202;16.334;2023-04-24T07:09:31;98012.69;;;14.98;55.48
40155;BME280;25875;48.202;16.334;2023-04-24T07:11:58;98021.53;;;14.99;56.03
40155;BME280;25875;48.202;16.334;2023-04-24T07:14:24;97975.13;;;14.72;55.74
40155;BME280;25875;48.202;16.334;2023-04-24T07:16:51;98028.69;;;14.98;55.57
40155;BME280;25875;48.202;16.334;2023-04-24T07:19:18;98022.53;;;14.98;55.59
40155;BME280;25875;48.202;16.334;2023-04-24T07:21:45;98023.66;;;14.95;55.94
40155;BME280;25875;48.202;16.334;2023-04-24T07:24:11;98025.06;;;14.99;55.94
40155;BME280;25875;48.202;16.334;2023-04-24T07:26:40;98028.41;;;15.01;55.65
40155;BME280;25875;48.202;16.334;2023-04-24T07:29:07;98034.44;;;15.03;55.92
40155;BME280;25875;48.202;16.334;2023-04-24T07:31:34;98041.31;;;15.06;55.56
40155;BME280;25875;48.202;16.334;2023-04-24T07:34:01;98035.97;;;15.06;56.06
40155;BME280;25875;48.202;16.334;2023-04-24T07:36:27;98022.13;;;14.93;55.99
40155;BME280;25875;48.202;16.334;2023-04-24T07:38:55;98050.88;;;15.08;56.36
40155;BME280;25875;48.202;16.334;2023-04-24T07:41:22;98053.09;;;15.13;56.42
40155;BME280;25875;48.202;16.334;2023-04-24T07:43:51;97990.16;;;14.73;56.20
40155;BME280;25875;48.202;16.334;2023-04-24T07:46:19;97966.44;;;14.70;56.23
40155;BME280;25875;48.202;16.334;2023-04-24T07:48:46;98054.69;;;15.43;55.71
40155;BME280;25875;48.202;16.334;2023-04-24T07:51:14;98060.88;;;15.44;55.72
40155;BME280;25875;48.202;16.334;2023-04-24T07:53:41;98063.16;;;15.29;56.12
40155;BME280;25875;48.202;16.334;2023-04-24T07:56:08;98064.03;;;15.20;56.48
40155;BME280;25875;48.202;16.334;2023-04-24T07:58:35;97982.59;;;14.69;56.69
40155;BME280;25875;48.202;16.334;2023-04-24T08:01:03;97990.88;;;14.66;57.32
40155;BME280;25875;48.202;16.334;2023-04-24T08:03:30;98079.25;;;15.00;58.08
40155;BME280;25875;48.202;16.334;2023-04-24T08:05:56;98037.75;;;14.68;58.30
40155;BME280;25875;48.202;16.334;2023-04-24T08:08:23;98083.91;;;14.79;58.79
40155;BME280;25875;48.202;16.334;2023-04-24T08:10:50;98074.78;;;14.71;58.61
40155;BME280;25875;48.202;16.334;2023-04-24T08:13:17;98075.06;;;14.68;58.72
40155;BME280;25875;48.202;16.334;2023-04-24T08:15:43;98070.44;;;14.70;58.86
40155;BME280;25875;48.202;16.334;2023-04-24T08:18:12;98076.91;;;14.68;58.57
40155;BME280;25875;48.202;16.334;2023-04-24T08:20:41;98074.75;;;14.52;58.60
40155;BME280;25875;48.202;16.334;2023-04-24T08:23:10;98077.84;;;14.57;59.25
40155;BME280;25875;48.202;16.334;2023-04-24T08:25:37;98092.88;;;14.58;58.78
40155;BME280;25875;48.202;16.334;2023-04-24T08:28:06;98084.28;;;14.55;58.76
40155;BME280;25875;48.202;16.334;2023-04-24T08:30:33;98100.69;;;14.50;58.44
40155;BME280;25875;48.202;16.334;2023-04-24T08:33:00;98093.81;;;14.48;58.39
40155;BME280;25875;48.202;16.334;2023-04-24T08:35:28;98098.31;;;14.47;58.88
40155;BME280;25875;48.202;16.334;2023-04-24T08:37:55;98095.06;;;14.43;58.86
40155;BME280;25875;48.202;16.334;2023-04-24T08:40:28;98105.16;;;14.30;60.24
40155;BME280;25875;48.202;16.334;2023-04-24T08:42:55;98083.25;;;14.07;60.15
40155;BME280;25875;48.202;16.334;2023-04-24T08:45:23;97977.72;;;13.16;60.30
40155;BME280;25875;48.202;16.334;2023-04-24T08:47:52;98131.16;;;13.98;60.67
40155;BME280;25875;48.202;16.334;2023-04-24T08:50:20;98104.44;;;13.69;61.32
40155;BME280;25875;48.202;16.334;2023-04-24T08:52:49;98140.06;;;13.77;61.85
40155;BME280;25875;48.202;16.334;2023-04-24T08:55:18;98124.19;;;13.66;61.82
40155;BME280;25875;48.202;16.334;2023-04-24T08:57:50;98131.16;;;13.58;62.74
40155;BME280;25875;48.202;16.334;2023-04-24T09:00:19;98136.03;;;13.53;61.72
40155;BME280;25875;48.202;16.334;2023-04-24T09:02:48;98131.09;;;13.48;62.65
40155;BME280;25875;48.202;16.334;2023-04-24T09:05:16;98136.34;;;13.38;62.65
40155;BME280;25875;48.202;16.334;2023-04-24T09:07:45;98135.50;;;13.38;63.04
40155;BME280;25875;48.202;16.334;2023-04-24T09:10:14;98140.38;;;13.33;63.10
40155;BME280;25875;48.202;16.334;2023-04-24T09:12:42;98135.31;;;13.30;62.91
40155;BME280;25875;48.202;16.334;2023-04-24T09:15:11;98142.72;;;13.26;62.78
40155;BME280;25875;48.202;16.334;2023-04-24T09:17:38;98139.47;;;13.23;62.68
40155;BME280;25875;48.202;16.334;2023-04-24T09:20:05;98061.31;;;12.72;62.97
40155;BME280;25875;48.202;16.334;2023-04-24T09:22:32;98133.97;;;13.14;62.82
40155;BME280;25875;48.202;16.334;2023-04-24T09:25:02;98037.25;;;12.53;62.98
40155;BME280;25875;48.202;16.334;2023-04-24T09:27:31;98140.97;;;13.15;62.78
40155;BME280;25875;48.202;16.334;2023-04-24T09:29:58;98111.44;;;12.98;62.52
40155;BME280;25875;48.202;16.334;2023-04-24T09:32:25;98142.19;;;13.11;62.71
40155;BME280;25875;48.202;16.334;2023-04-24T09:35:09;98144.88;;;13.11;63.81
40155;BME280;25875;48.202;16.334;2023-04-24T09:37:38;98119.09;;;12.91;62.76
40155;BME280;25875;48.202;16.334;2023-04-24T09:40:11;98142.25;;;13.00;63.41
40155;BME280;25875;48.202;16.334;2023-04-24T09:42:40;98111.31;;;12.78;63.18
40155;BME280;25875;48.202;16.334;2023-04-24T09:45:09;98134.81;;;12.94;62.74
40155;BME280;25875;48.202;16.334;2023-04-24T09:47:37;98159.00;;;12.91;62.56
40155;BME280;25875;48.202;16.334;2023-04-24T09:50:12;97951.94;;;11.71;63.17
40155;BME280;25875;48.202;16.334;2023-04-24T09:52:43;98140.88;;;12.85;63.03
40155;BME280;25875;48.202;16.334;2023-04-24T09:55:15;98120.78;;;12.71;62.33
40155;BME280;25875;48.202;16.334;2023-04-24T09:58:03;98094.75;;;12.54;63.56
40155;BME280;25875;48.202;16.334;2023-04-24T10:00:31;98075.63;;;12.39;62.32
40155;BME280;25875;48.202;16.334;2023-04-24T10:03:00;98125.50;;;12.68;62.20
40155;BME280;25875;48.202;16.334;2023-04-24T10:05:29;98157.81;;;12.84;62.47
40155;BME280;25875;48.202;16.334;2023-04-24T10:07:57;98146.34;;;12.83;62.52
40155;BME280;25875;48.202;16.334;2023-04-24T10:10:24;98154.19;;;12.85;62.40
40155;BME280;25875;48.202;16.334;2023-04-24T10:12:53;98125.97;;;12.73;62.90
40155;BME280;25875;48.202;16.334;2023-04-24T10:15:21;98079.94;;;12.40;62.08
40155;BME280;25875;48.202;16.334;2023-04-24T10:17:48;98156.47;;;12.90;62.08
40155;BME280;25875;48.202;16.334;2023-04-24T10:20:19;98162.88;;;12.87;62.52
40155;BME280;25875;48.202;16.334;2023-04-24T10:22:48;98170.84;;;12.87;62.39
40155;BME280;25875;48.202;16.334;2023-04-24T10:25:19;98143.72;;;12.72;62.43
40155;BME280;25875;48.202;16.334;2023-04-24T10:27:47;98101.41;;;12.48;62.65
40155;BME280;25875;48.202;16.334;2023-04-24T10:30:18;98143.78;;;12.61;62.87
40155;BME280;25875;48.202;16.334;2023-04-24T10:32:45;98158.84;;;12.72;63.08
40155;BME280;25875;48.202;16.334;2023-04-24T10:35:13;98165.59;;;12.76;63.21
40155;BME280;25875;48.202;16.334;2023-04-24T10:37:44;98167.28;;;12.77;63.77
40155;BME280;25875;48.202;16.334;2023-04-24T10:40:16;98174.66;;;12.73;63.42
40155;BME280;25875;48.202;16.334;2023-04-24T10:42:47;98175.75;;;12.71;64.35
40155;BME280;25875;48.202;16.334;2023-04-24T10:45:18;98180.22;;;12.70;64.82
40155;BME280;25875;48.202;16.334;2023-04-24T10:47:57;98181.19;;;12.69;65.95
40155;BME280;25875;48.202;16.334;2023-04-24T10:50:26;98178.06;;;12.64;64.17
40155;BME280;25875;48.202;16.334;2023-04-24T10:53:05;98186.19;;;12.63;65.93
40155;BME280;25875;48.202;16.334;2023-04-24T10:55:44;98180.84;;;12.63;65.77
40155;BME280;25875;48.202;16.334;2023-04-24T10:58:13;98179.28;;;12.60;64.58
40155;BME280;25875;48.202;16.334;2023-04-24T11:00:43;98196.22;;;12.59;64.92
40155;BME280;25875;48.202;16.334;2023-04-24T11:03:26;98177.34;;;12.62;66.41
40155;BME280;25875;48.202;16.334;2023-04-24T11:05:58;98175.41;;;12.64;65.59
40155;BME280;25875;48.202;16.334;2023-04-24T11:08:30;98149.72;;;12.54;65.02
40155;BME280;25875;48.202;16.334;2023-04-24T11:11:08;98182.88;;;12.70;66.37
40155;BME280;25875;48.202;16.334;2023-04-24T11:14:01;98184.44;;;12.73;66.89
40155;BME280;25875;48.202;16.334;2023-04-24T11:16:32;98186.97;;;12.74;66.10
40155;BME280;25875;48.202;16.334;2023-04-24T11:19:01;98180.94;;;12.72;65.09
40155;BME280;25875;48.202;16.334;2023-04-24T11:21:31;98187.94;;;12.73;65.49
40155;BME280;25875;48.202;16.334;2023-04-24T11:23:58;98151.53;;;12.53;65.75
40155;BME280;25875;48.202;16.334;2023-04-24T11:26:25;98188.53;;;12.77;65.54
40155;BME280;25875;48.202;16.334;2023-04-24T11:29:06;98196.53;;;12.77;67.21
40155;BME280;25875;48.202;16.334;2023-04-24T11:31:39;98182.84;;;12.81;66.72
40155;BME280;25875;48.202;16.334;2023-04-24T11:34:10;98199.38;;;12.85;66.43
40155;BME280;25875;48.202;16.334;2023-04-24T11:36:38;98189.47;;;12.87;65.27
40155;BME280;25875;48.202;16.334;2023-04-24T11:39:06;98197.44;;;12.87;65.34
40155;BME280;25875;48.202;16.334;2023-04-24T11:41:33;98151.25;;;12.67;65.49
40155;BME280;25875;48.202;16.334;2023-04-24T11:44:01;98193.56;;;12.91;65.62
40155;BME280;25875;48.202;16.334;2023-04-24T11:46:29;98186.44;;;12.92;65.48
40155;BME280;25875;48.202;16.334;2023-04-24T11:48:59;98191.50;;;12.95;66.09
40155;BME280;25875;48.202;16.334;2023-04-24T11:51:27;98192.09;;;12.98;65.74
40155;BME280;25875;48.202;16.334;2023-04-24T11:53:55;98192.91;;;12.99;65.94
40155;BME280;25875;48.202;16.334;2023-04-24T11:56:23;98148.53;;;12.78;66.49
40155;BME280;25875;48.202;16.334;2023-04-24T11:58:51;98190.00;;;13.02;66.55
40155;BME280;25875;48.202;16.334;2023-04-24T12:01:18;98187.09;;;13.05;66.36
40155;BME280;25875;48.202;16.334;2023-04-24T12:03:48;98184.88;;;13.10;66.58
40155;BME280;25875;48.202;16.334;2023-04-24T12:06:17;98187.88;;;13.16;66.54
40155;BME280;25875;48.202;16.334;2023-04-24T12:08:47;98185.53;;;13.23;67.53
40155;BME280;25875;48.202;16.334;2023-04-24T12:11:16;98181.25;;;13.32;67.38
40155;BME280;25875;48.202;16.334;2023-04-24T12:13:44;98175.41;;;13.38;67.00
40155;BME280;25875;48.202;16.334;2023-04-24T12:16:12;98150.81;;;13.25;67.11
40155;BME280;25875;48.202;16.334;2023-04-24T12:18:44;98147.66;;;13.31;67.63
40155;BME280;25875;48.202;16.334;2023-04-24T12:21:15;98174.00;;;13.55;67.77
40155;BME280;25875;48.202;16.334;2023-04-24T12:23:44;98175.44;;;13.59;67.38
40155;BME280;25875;48.202;16.334;2023-04-24T12:26:12;98164.97;;;13.67;67.26
40155;BME280;25875;48.202;16.334;2023-04-24T12:28:42;98170.59;;;13.73;67.80
40155;BME280;25875;48.202;16.334;2023-04-24T12:31:09;98167.41;;;13.79;67.43
40155;BME280;25875;48.202;16.334;2023-04-24T12:33:35;98167.28;;;13.81;67.48
40155;BME280;25875;48.202;16.334;2023-04-24T12:36:04;98170.50;;;13.85;67.42
40155;BME280;25875;48.202;16.334;2023-04-24T12:38:31;98160.44;;;13.88;67.51
40155;BME280;25875;48.202;16.334;2023-04-24T12:41:09;98155.81;;;13.90;67.68
40155;BME280;25875;48.202;16.334;2023-04-24T12:43:36;98156.53;;;13.92;67.01
40155;BME280;25875;48.202;16.334;2023-04-24T12:46:05;98150.34;;;13.92;66.70
40155;BME280;25875;48.202;16.334;2023-04-24T12:48:32;98162.16;;;13.99;67.00
40155;BME280;25875;48.202;16.334;2023-04-24T12:50:59;98164.56;;;14.02;66.86
40155;BME280;25875;48.202;16.334;2023-04-24T12:53:27;98156.44;;;14.03;66.64
40155;BME280;25875;48.202;16.334;2023-04-24T12:55:56;98055.88;;;13.46;66.66